Friday, September 21, 2018, 5:34 PM EDT
Back to Local

KJFK, Kennedy International Airport

Location: Rosedale, NY, United States Lat: 40.633
Local Time: 5:34 PM EDT (21:34 GMT) Lon: -73.767
Time Zone: US/Eastern Elev: 13 ft

Show me the last for .
Show Decoded

2018-09-21 16:51 METAR KJFK 212051Z 18016KT 10SM FEW023 OVC041 22/19 A3009 RMK AO2 SLP190
                 T02220194 58030 =
2018-09-21 16:39 METAR KJFK 212039Z 17013KT 10SM FEW023 OVC043 22/19 A3011 RMK AO2 T02220194 =
2018-09-21 15:51 METAR KJFK 211951Z 18015KT 10SM BKN023 OVC043 22/18 A3013 RMK AO2 SLP202
                 T02220183 =
2018-09-21 14:51 METAR KJFK 211851Z 17015KT 10SM FEW020 BKN026 OVC044 22/18 A3015 RMK AO2 SLP210
                 BKN V SCT T02170183 =
2018-09-21 13:51 METAR KJFK 211751Z 17014KT 10SM BKN022 BKN029 OVC044 21/18 A3018 RMK AO2 SLP220
                 T02110178 10222 20206 56023 =
2018-09-21 12:51 METAR KJFK 211651Z 17013KT 10SM BKN025 OVC043 22/17 A3020 RMK AO2 SLP227
                 T02170172 =
2018-09-21 12:30 METAR KJFK 211630Z 17014KT 10SM BKN025 OVC043 22/17 A3021 RMK AO2 T02170172 =
2018-09-21 11:51 METAR KJFK 211551Z 17013KT 10SM SCT023 OVC041 22/17 A3023 RMK AO2 SLP235
                 T02170172 =
2018-09-21 10:51 METAR KJFK 211451Z 18010KT 10SM SCT025 BKN032 OVC041 21/17 A3025 RMK AO2 SLP243
                 SCT V BKN T02110167 58006 =
2018-09-21 09:51 METAR KJFK 211351Z 17010KT 10SM FEW025 BKN039 BKN050 21/17 A3026 RMK AO2 SLP246
                 T02110167 =
2018-09-21 08:51 METAR KJFK 211251Z 17009KT 10SM FEW026 BKN039 BKN055 21/17 A3027 RMK AO2 SLP248
                 T02060167 =
2018-09-21 07:51 METAR KJFK 211151Z 17013KT 10SM SCT025 BKN036 BKN055 21/17 A3027 RMK AO2 SLP250
                 T02060167 10206 20194 51003 =
2018-09-21 06:51 METAR KJFK 211051Z 15010KT 10SM BKN028 BKN036 OVC055 20/16 A3027 RMK AO2 SLP250
                 BKN028 V SCT T02000161 =
2018-09-21 05:51 METAR KJFK 210951Z 15007KT 10SM OVC028 20/17 A3027 RMK AO2 SLP248 T02000167 =
2018-09-21 04:51 METAR KJFK 210851Z 15008KT 10SM BKN028 OVC060 19/16 A3026 RMK AO2 SLP246
                 T01940161 55000 =
2018-09-21 03:51 METAR KJFK 210751Z 15007KT 10SM BKN024 OVC060 19/17 A3025 RMK AO2 SLP242
                 T01940167 =
2018-09-21 02:51 METAR KJFK 210651Z 14010KT 10SM BKN027 OVC060 20/17 A3024 RMK AO2 SLP241
                 T02000167 =
2018-09-21 01:51 METAR KJFK 210551Z 14006KT 10SM BKN029 OVC055 19/17 A3026 RMK AO2 SLP246
                 T01940167 10194 20189 58002 =
2018-09-21 00:51 METAR KJFK 210451Z 14006KT 10SM BKN024 OVC055 19/16 A3027 RMK AO2 SLP250
                 T01940161 402280178 =
2018-09-20 23:51 METAR KJFK 210351Z 12006KT 10SM BKN025 OVC050 19/17 A3027 RMK AO2 SLP250
                 T01940167 =
2018-09-20 22:51 METAR KJFK 210251Z 13009KT 10SM SCT022 BKN028 OVC055 19/17 A3027 RMK AO2 SLP248
                 T01940167 50002 =
2018-09-20 22:48 METAR KJFK 210248Z 13009KT 10SM SCT022 BKN028 OVC055 19/17 A3027 RMK AO2 =
2018-09-20 21:51 METAR KJFK 210151Z 13008KT 10SM SCT028 OVC050 19/17 A3027 RMK AO2 SLP248
                 T01940167 =
2018-09-20 20:51 METAR KJFK 210051Z 13005KT 10SM FEW021 OVC050 19/17 A3026 RMK AO2 SLP246
                 T01940167 =
2018-09-20 19:51 METAR KJFK 202351Z 14004KT 10SM FEW025 OVC050 19/17 A3025 RMK AO2 SLP242
                 T01940167 10222 20189 51009 =
2018-09-20 18:51 METAR KJFK 202251Z 16007KT 10SM SCT025 BKN045 BKN055 19/17 A3024 RMK AO2 SLP240
                 T01940167 =
2018-09-20 17:51 METAR KJFK 202151Z 15009KT 10SM SCT021 BKN040 BKN055 21/17 A3024 RMK AO2 SLP239
                 T02060167 =

Support USWX by starting your Amazon purchase here.